createdAt,value
2023-05-14T00:01:10.072Z,21.40
2023-05-14T00:03:37.720Z,23.40
2023-05-14T00:06:05.008Z,21.70
2023-05-14T00:08:31.650Z,21.30
2023-05-14T00:10:59.005Z,21.10
2023-05-14T00:13:26.341Z,20.80
2023-05-14T00:15:53.029Z,21.90
2023-05-14T00:18:19.723Z,22.30
2023-05-14T00:20:46.367Z,19.00
2023-05-14T00:23:13.007Z,22.50
2023-05-14T00:25:40.081Z,19.70
2023-05-14T00:28:06.803Z,19.50
2023-05-14T00:30:33.424Z,19.90
2023-05-14T00:33:00.054Z,19.70
2023-05-14T00:35:26.962Z,18.40
2023-05-14T00:37:53.873Z,20.20
2023-05-14T00:40:21.026Z,22.40
2023-05-14T00:42:48.268Z,21.60
2023-05-14T00:45:14.920Z,21.20
2023-05-14T00:47:41.568Z,23.50
2023-05-14T00:50:09.101Z,22.50
2023-05-14T00:52:36.942Z,22.30
2023-05-14T00:55:07.492Z,21.40
2023-05-14T00:57:36.097Z,22.50
2023-05-14T01:00:03.814Z,20.20
2023-05-14T01:02:31.002Z,19.80
2023-05-14T01:04:57.891Z,22.30
2023-05-14T01:07:28.808Z,22.70
2023-05-14T01:10:01.281Z,20.90
2023-05-14T01:12:53.355Z,18.40
2023-05-14T01:15:38.290Z,19.10
2023-05-14T01:18:08.095Z,16.40
2023-05-14T01:20:35.092Z,16.50
2023-05-14T01:23:01.939Z,14.60
2023-05-14T01:25:29.281Z,16.00
2023-05-14T01:28:18.246Z,15.50
2023-05-14T01:31:00.994Z,17.00
2023-05-14T01:33:27.916Z,15.80
2023-05-14T01:35:54.866Z,16.20
2023-05-14T01:38:21.723Z,14.70
2023-05-14T01:40:48.459Z,18.30
2023-05-14T01:43:15.725Z,16.40
2023-05-14T01:45:42.721Z,18.20
2023-05-14T01:48:09.483Z,19.30
2023-05-14T01:50:36.218Z,19.40
2023-05-14T01:53:03.168Z,20.60
2023-05-14T01:55:29.885Z,19.70
2023-05-14T01:57:56.589Z,19.50
2023-05-14T02:00:24.077Z,19.50
2023-05-14T02:02:51.197Z,19.10
2023-05-14T02:05:17.949Z,19.30
2023-05-14T02:07:44.708Z,18.20
2023-05-14T02:10:11.514Z,16.50
2023-05-14T02:12:38.302Z,18.00
2023-05-14T02:15:05.692Z,17.00
2023-05-14T02:17:32.315Z,16.40
2023-05-14T02:19:58.932Z,17.40
2023-05-14T02:22:25.787Z,14.80
2023-05-14T02:24:52.703Z,17.00
2023-05-14T02:27:19.662Z,16.90
2023-05-14T02:29:46.277Z,16.80
2023-05-14T02:32:13.933Z,17.70
2023-05-14T02:34:40.651Z,15.40
2023-05-14T02:37:07.543Z,14.70
2023-05-14T02:39:34.329Z,14.50
2023-05-14T02:42:01.326Z,17.20
2023-05-14T02:44:27.926Z,14.70
2023-05-14T02:46:54.624Z,14.60
2023-05-14T02:49:21.810Z,17.00
2023-05-14T02:51:48.436Z,17.10
2023-05-14T02:54:16.783Z,15.80
2023-05-14T02:56:43.582Z,14.10
2023-05-14T02:59:10.565Z,13.10
2023-05-14T03:01:37.859Z,15.90
2023-05-14T03:04:05.126Z,15.70
2023-05-14T03:06:31.969Z,15.40
2023-05-14T03:08:58.632Z,16.70
2023-05-14T03:11:25.557Z,15.90
2023-05-14T03:13:52.380Z,13.90
2023-05-14T03:16:19.057Z,13.70
2023-05-14T03:18:45.729Z,15.80
2023-05-14T03:21:12.623Z,14.20
2023-05-14T03:23:39.501Z,16.00
2023-05-14T03:26:06.419Z,14.90
2023-05-14T03:28:33.063Z,14.40
2023-05-14T03:30:59.906Z,14.70
2023-05-14T03:33:26.706Z,14.90
2023-05-14T03:35:53.327Z,13.10
2023-05-14T03:38:21.407Z,11.40
2023-05-14T03:40:48.153Z,11.30
2023-05-14T03:43:14.949Z,13.30
2023-05-14T03:45:42.347Z,12.20
2023-05-14T03:48:09.533Z,13.70
2023-05-14T03:50:37.156Z,13.70
2023-05-14T03:53:03.895Z,11.60
2023-05-14T03:55:30.659Z,11.70
2023-05-14T03:57:57.299Z,11.60
2023-05-14T04:00:24.338Z,13.10
2023-05-14T04:02:52.464Z,11.20
2023-05-14T04:05:19.183Z,12.20
2023-05-14T04:07:46.387Z,11.70
2023-05-14T04:10:13.652Z,9.90
2023-05-14T04:12:40.317Z,11.30
2023-05-14T04:15:08.858Z,11.70
2023-05-14T04:17:35.764Z,11.40
2023-05-14T04:20:02.447Z,13.30
2023-05-14T04:22:29.066Z,10.90
2023-05-14T04:24:55.703Z,12.90
2023-05-14T04:27:22.432Z,16.20
2023-05-14T04:29:49.873Z,14.80
2023-05-14T04:32:17.753Z,13.60
2023-05-14T04:34:44.412Z,13.00
2023-05-14T04:37:11.030Z,13.10
2023-05-14T04:39:37.935Z,14.90
2023-05-14T04:42:05.322Z,12.00
2023-05-14T04:44:31.929Z,11.60
2023-05-14T04:46:58.562Z,11.30
2023-05-14T04:49:25.365Z,12.20
2023-05-14T04:51:52.547Z,11.00
2023-05-14T04:54:19.203Z,11.20
2023-05-14T04:56:45.865Z,10.00
2023-05-14T04:59:12.788Z,10.70
2023-05-14T05:01:39.490Z,10.00
2023-05-14T05:04:06.324Z,12.40
2023-05-14T05:06:33.039Z,9.10
2023-05-14T05:09:01.837Z,9.30
2023-05-14T05:11:28.926Z,10.10
2023-05-14T05:13:55.875Z,9.30
2023-05-14T05:16:22.937Z,11.00
2023-05-14T05:18:49.913Z,8.20
2023-05-14T05:21:16.639Z,8.80
2023-05-14T05:23:43.325Z,8.50
2023-05-14T05:26:10.155Z,8.10
2023-05-14T05:28:36.773Z,7.80
2023-05-14T05:31:03.491Z,6.50
2023-05-14T05:33:30.450Z,6.00
2023-05-14T05:35:57.060Z,7.60
2023-05-14T05:38:23.719Z,7.00
2023-05-14T05:40:50.347Z,5.90
2023-05-14T05:43:17.014Z,6.30
2023-05-14T05:45:43.831Z,6.40
2023-05-14T05:48:10.528Z,10.10
2023-05-14T05:50:37.267Z,6.20
2023-05-14T05:53:04.175Z,6.60
2023-05-14T05:55:30.969Z,6.30
2023-05-14T05:57:57.689Z,7.00
2023-05-14T06:00:24.915Z,6.20
2023-05-14T06:02:52.453Z,6.60
2023-05-14T06:05:19.698Z,5.80
2023-05-14T06:07:46.478Z,5.30
2023-05-14T06:10:13.096Z,6.40
2023-05-14T06:12:40.512Z,5.90
2023-05-14T06:15:07.824Z,6.70
2023-05-14T06:17:34.497Z,5.80
2023-05-14T06:20:01.233Z,5.80
2023-05-14T06:22:27.970Z,4.60
2023-05-14T06:24:54.678Z,4.70
2023-05-14T06:27:21.477Z,4.90
2023-05-14T06:29:48.122Z,6.50
2023-05-14T06:32:15.809Z,4.90
2023-05-14T06:34:42.950Z,6.10
2023-05-14T06:37:10.495Z,4.60
2023-05-14T06:39:37.366Z,4.90
2023-05-14T06:42:04.320Z,6.50
2023-05-14T06:44:31.362Z,5.70
2023-05-14T06:46:58.034Z,6.70
2023-05-14T06:49:24.740Z,5.30
2023-05-14T06:51:52.332Z,6.30
2023-05-14T06:54:20.459Z,6.00
2023-05-14T06:56:47.201Z,6.50
2023-05-14T06:59:13.907Z,6.20
2023-05-14T07:01:40.972Z,5.70
2023-05-14T07:04:07.962Z,5.10
2023-05-14T07:06:34.797Z,6.40
2023-05-14T07:09:01.466Z,5.50
2023-05-14T07:11:28.281Z,4.90
2023-05-14T07:13:54.954Z,5.70
2023-05-14T07:16:21.603Z,5.30
2023-05-14T07:18:48.313Z,4.30
2023-05-14T07:21:15.058Z,5.40
2023-05-14T07:25:17.882Z,5.20
2023-05-14T07:27:44.546Z,4.70
2023-05-14T07:30:11.675Z,4.30
2023-05-14T07:32:38.461Z,5.40
2023-05-14T07:35:06.261Z,6.00
2023-05-14T07:37:32.900Z,4.50
2023-05-14T07:39:59.700Z,5.10
2023-05-14T07:42:35.994Z,4.70
2023-05-14T07:45:04.961Z,4.50
2023-05-14T07:47:31.753Z,4.20
2023-05-14T07:49:59.380Z,4.40
2023-05-14T07:52:26.111Z,6.10
2023-05-14T07:54:53.006Z,5.20
2023-05-14T07:57:20.100Z,4.70
2023-05-14T07:59:47.897Z,3.90
2023-05-14T08:02:16.300Z,3.90
2023-05-14T08:04:43.058Z,4.40
2023-05-14T08:07:09.710Z,4.30
2023-05-14T08:09:36.633Z,4.60
2023-05-14T08:12:03.569Z,5.20
2023-05-14T08:14:30.229Z,3.60
2023-05-14T08:16:56.917Z,3.60
2023-05-14T08:19:24.436Z,5.30
2023-05-14T08:21:51.592Z,3.70
2023-05-14T08:24:18.755Z,4.30
2023-05-14T08:26:45.382Z,4.50
2023-05-14T08:29:12.972Z,3.90
2023-05-14T08:31:41.538Z,5.00
2023-05-14T08:34:08.194Z,4.10
2023-05-14T08:36:34.825Z,4.10
2023-05-14T08:39:01.518Z,5.60
2023-05-14T08:41:28.105Z,4.60
2023-05-14T08:44:16.187Z,5.00
2023-05-14T08:46:42.860Z,5.20
2023-05-14T08:49:28.839Z,4.60
2023-05-14T08:51:55.492Z,4.90
2023-05-14T08:54:24.735Z,4.80
2023-05-14T08:56:51.957Z,4.10
2023-05-14T08:59:19.366Z,4.50
2023-05-14T09:01:50.457Z,5.10
2023-05-14T09:04:23.286Z,4.00
2023-05-14T09:06:51.199Z,5.30
2023-05-14T09:09:18.113Z,4.50
2023-05-14T09:11:47.318Z,4.10
2023-05-14T09:14:13.989Z,4.40
2023-05-14T09:16:42.751Z,4.50
2023-05-14T09:19:09.734Z,4.20
2023-05-14T09:21:36.528Z,4.20
2023-05-14T09:24:04.027Z,4.80
2023-05-14T09:26:32.181Z,4.20
2023-05-14T09:29:05.189Z,4.50
2023-05-14T09:31:33.085Z,4.00
2023-05-14T09:34:00.073Z,5.30
2023-05-14T09:36:27.765Z,4.60
2023-05-14T09:38:58.069Z,4.70
2023-05-14T09:41:24.839Z,4.40
2023-05-14T09:43:51.628Z,5.10
2023-05-14T09:46:18.367Z,5.20
2023-05-14T09:48:45.976Z,4.70
2023-05-14T09:51:13.276Z,4.70
2023-05-14T09:53:41.382Z,4.40
2023-05-14T09:56:08.046Z,5.50
2023-05-14T09:58:34.675Z,4.10
2023-05-14T10:01:01.943Z,4.50
2023-05-14T10:03:29.876Z,5.10
2023-05-14T10:05:58.835Z,5.50
2023-05-14T10:08:28.091Z,3.80
2023-05-14T10:10:55.948Z,5.60
2023-05-14T10:13:24.286Z,3.80
2023-05-14T10:15:50.906Z,5.80
2023-05-14T10:18:19.845Z,4.30
2023-05-14T10:20:48.698Z,4.10
2023-05-14T10:23:15.734Z,5.40
2023-05-14T10:25:42.506Z,4.80
2023-05-14T10:28:09.221Z,5.20
2023-05-14T10:30:36.031Z,4.80
2023-05-14T10:33:07.355Z,5.90
2023-05-14T10:35:51.945Z,4.90
2023-05-14T10:38:23.324Z,4.20
2023-05-14T10:40:51.611Z,5.00
2023-05-14T10:43:19.545Z,4.10
2023-05-14T10:45:46.411Z,4.90
2023-05-14T10:48:13.083Z,5.20
2023-05-14T10:50:40.148Z,5.20
2023-05-14T10:53:06.894Z,4.60
2023-05-14T10:55:33.775Z,4.10
2023-05-14T10:58:01.509Z,5.00
2023-05-14T11:00:28.276Z,5.50
2023-05-14T11:02:56.132Z,3.80
2023-05-14T11:05:22.896Z,7.50
2023-05-14T11:07:50.372Z,4.40
2023-05-14T11:10:18.503Z,6.30
2023-05-14T11:12:46.847Z,5.00
2023-05-14T11:15:15.096Z,5.10
2023-05-14T11:17:42.427Z,4.50
2023-05-14T11:20:10.000Z,4.60
2023-05-14T11:22:37.384Z,4.90
2023-05-14T11:25:04.684Z,7.00
2023-05-14T11:27:36.396Z,5.50
2023-05-14T11:30:04.127Z,3.70
2023-05-14T11:32:34.126Z,6.10
2023-05-14T11:35:00.908Z,5.60
2023-05-14T11:37:27.547Z,3.90
2023-05-14T11:39:55.305Z,7.20
2023-05-14T11:42:22.413Z,5.10
2023-05-14T11:44:50.330Z,4.50
2023-05-14T11:47:18.371Z,10.40
2023-05-14T11:49:45.445Z,4.00
2023-05-14T11:52:14.904Z,4.50
2023-05-14T11:54:42.694Z,4.30
2023-05-14T11:57:19.584Z,8.20
2023-05-14T11:59:47.251Z,5.30
2023-05-14T12:02:16.133Z,6.80
2023-05-14T12:04:43.074Z,5.30
2023-05-14T12:07:14.563Z,4.60
2023-05-14T12:09:49.212Z,4.00
2023-05-14T12:12:20.397Z,3.80
2023-05-14T12:14:47.349Z,4.30
2023-05-14T12:17:18.230Z,4.50
2023-05-14T12:19:45.633Z,5.50
2023-05-14T12:22:13.902Z,4.70
2023-05-14T12:24:40.530Z,5.40
2023-05-14T12:27:07.632Z,4.60
2023-05-14T12:29:38.816Z,4.20
2023-05-14T12:32:09.365Z,5.10
2023-05-14T12:34:37.690Z,5.50
2023-05-14T12:37:05.946Z,4.20
2023-05-14T12:39:33.731Z,4.00
2023-05-14T12:42:00.797Z,5.10
2023-05-14T12:44:27.778Z,4.20
2023-05-14T12:46:54.527Z,5.60
2023-05-14T12:49:21.539Z,4.50
2023-05-14T12:51:48.159Z,4.00
2023-05-14T12:54:16.031Z,5.70
2023-05-14T12:56:42.880Z,5.60
2023-05-14T12:59:09.633Z,6.00
2023-05-14T13:01:37.649Z,4.30
2023-05-14T13:04:05.749Z,4.50
2023-05-14T13:06:32.753Z,4.40
2023-05-14T13:09:01.924Z,8.30
2023-05-14T13:11:30.429Z,4.70
2023-05-14T13:14:00.128Z,4.30
2023-05-14T13:16:27.752Z,5.20
2023-05-14T13:18:55.448Z,4.60
2023-05-14T13:21:22.247Z,3.30
2023-05-14T13:23:49.009Z,5.20
2023-05-14T13:26:16.155Z,4.70
2023-05-14T13:28:43.007Z,5.20
2023-05-14T13:31:11.280Z,4.50
2023-05-14T13:33:40.852Z,6.80
2023-05-14T13:36:08.303Z,4.10
2023-05-14T13:38:35.014Z,4.30
2023-05-14T13:41:04.530Z,4.70
2023-05-14T13:43:31.908Z,4.30
2023-05-14T13:45:59.347Z,3.90
2023-05-14T13:48:26.087Z,5.00
2023-05-14T13:50:52.860Z,4.80
2023-05-14T13:53:20.598Z,4.70
2023-05-14T13:55:49.150Z,4.20
2023-05-14T13:58:16.870Z,4.20
2023-05-14T14:00:44.261Z,5.80
2023-05-14T14:03:11.261Z,5.50
2023-05-14T14:05:38.473Z,5.10
2023-05-14T14:08:21.956Z,4.50
2023-05-14T14:10:50.702Z,4.30
2023-05-14T14:13:17.395Z,4.80
2023-05-14T14:15:44.371Z,5.10
2023-05-14T14:18:11.301Z,4.20
2023-05-14T14:20:38.031Z,4.00
2023-05-14T14:23:04.667Z,6.40
2023-05-14T14:25:31.377Z,6.10
2023-05-14T14:27:58.065Z,4.30
2023-05-14T14:30:24.826Z,5.30
2023-05-14T14:32:51.639Z,5.90
2023-05-14T14:35:19.204Z,4.10
2023-05-14T14:37:49.148Z,4.80
2023-05-14T14:40:16.866Z,6.90
2023-05-14T14:42:43.727Z,6.20
2023-05-14T14:45:11.003Z,5.70
2023-05-14T14:47:37.674Z,5.60
2023-05-14T14:50:05.587Z,6.60
2023-05-14T14:52:32.324Z,4.90
2023-05-14T14:54:58.940Z,6.30
2023-05-14T14:57:26.774Z,5.50
2023-05-14T14:59:53.609Z,6.30
2023-05-14T15:02:21.235Z,7.30
2023-05-14T15:04:48.422Z,6.60
2023-05-14T15:07:17.587Z,6.10
2023-05-14T15:09:45.017Z,6.30
2023-05-14T15:12:12.780Z,5.40
2023-05-14T15:14:40.332Z,6.30
2023-05-14T15:17:07.322Z,8.30
2023-05-14T15:19:34.277Z,7.80
2023-05-14T15:22:01.770Z,6.60
2023-05-14T15:24:29.674Z,6.70
2023-05-14T15:26:56.540Z,7.30
2023-05-14T15:29:23.196Z,5.00
2023-05-14T15:31:49.958Z,5.80
2023-05-14T15:34:16.606Z,7.10
2023-05-14T15:36:43.245Z,10.00
2023-05-14T15:39:12.964Z,10.90
2023-05-14T15:41:39.817Z,14.40
2023-05-14T15:44:06.589Z,18.40
2023-05-14T15:46:33.480Z,10.50
2023-05-14T15:49:00.133Z,14.40
2023-05-14T15:51:26.909Z,8.90
2023-05-14T15:53:54.840Z,7.00
2023-05-14T15:56:22.641Z,9.00
2023-05-14T15:58:49.676Z,18.40
2023-05-14T16:01:16.426Z,26.90
2023-05-14T16:03:43.151Z,21.70
2023-05-14T16:06:10.029Z,12.80
2023-05-14T16:08:36.689Z,9.00
2023-05-14T16:11:03.343Z,7.00
2023-05-14T16:13:30.095Z,7.10
2023-05-14T16:15:56.792Z,6.50
2023-05-14T16:18:25.279Z,6.90
2023-05-14T16:20:52.110Z,7.70
2023-05-14T16:23:19.012Z,8.50
2023-05-14T16:25:45.728Z,7.30
2023-05-14T16:28:13.491Z,11.00
2023-05-14T16:30:40.204Z,8.40
2023-05-14T16:33:06.927Z,6.90
2023-05-14T16:35:33.734Z,5.30
2023-05-14T16:38:00.389Z,6.20
2023-05-14T16:40:27.191Z,7.40
2023-05-14T16:42:53.828Z,7.50
2023-05-14T16:45:20.682Z,7.80
2023-05-14T16:47:47.366Z,6.80
2023-05-14T16:50:14.149Z,6.70
2023-05-14T16:52:40.847Z,7.30
2023-05-14T16:55:08.085Z,6.50
2023-05-14T16:57:35.155Z,7.60
2023-05-14T17:00:04.663Z,6.50
2023-05-14T17:02:33.013Z,5.30
2023-05-14T17:05:00.309Z,8.00
2023-05-14T17:07:27.126Z,12.20
2023-05-14T17:09:53.813Z,14.20
2023-05-14T17:12:20.678Z,16.90
2023-05-14T17:14:47.326Z,20.90
2023-05-14T17:17:14.088Z,22.40
2023-05-14T17:19:41.115Z,15.50
2023-05-14T17:22:08.270Z,13.80
2023-05-14T17:24:36.632Z,14.00
2023-05-14T17:27:03.480Z,13.00
2023-05-14T17:29:30.143Z,12.80
2023-05-14T17:31:56.830Z,11.60
2023-05-14T17:34:23.876Z,6.20
2023-05-14T17:36:50.607Z,5.50
2023-05-14T17:39:17.216Z,5.30
2023-05-14T17:41:44.043Z,5.50
2023-05-14T17:44:12.909Z,8.10
2023-05-14T17:46:41.608Z,6.40
2023-05-14T17:49:08.490Z,5.80
2023-05-14T17:51:35.380Z,6.70
2023-05-14T17:54:01.996Z,8.40
2023-05-14T17:56:28.639Z,9.70
2023-05-14T17:58:55.258Z,10.20
2023-05-14T18:01:21.896Z,8.70
2023-05-14T18:03:48.920Z,7.40
2023-05-14T18:06:16.893Z,10.00
2023-05-14T18:08:43.781Z,8.10
2023-05-14T18:11:10.376Z,5.80
2023-05-14T18:13:37.108Z,7.80
2023-05-14T18:16:04.204Z,7.10
2023-05-14T18:18:31.098Z,8.10
2023-05-14T18:20:57.921Z,7.60
2023-05-14T18:23:24.535Z,7.50
2023-05-14T18:25:51.166Z,7.70
2023-05-14T18:28:18.975Z,10.70
2023-05-14T18:30:45.784Z,13.80
2023-05-14T18:33:12.553Z,13.80
2023-05-14T18:35:39.368Z,14.30
2023-05-14T18:38:08.026Z,15.90
2023-05-14T18:40:35.060Z,13.30
2023-05-14T18:43:01.848Z,13.30
2023-05-14T18:45:28.467Z,13.10
2023-05-14T18:47:55.180Z,14.20
2023-05-14T18:50:21.956Z,12.70
2023-05-14T18:52:48.702Z,14.70
2023-05-14T18:55:15.636Z,13.30
2023-05-14T18:57:42.274Z,11.10
2023-05-14T19:00:09.840Z,11.20
2023-05-14T19:02:36.608Z,9.30
2023-05-14T19:05:03.425Z,10.20
2023-05-14T19:07:30.852Z,9.80
2023-05-14T19:09:57.759Z,13.60
2023-05-14T19:12:24.651Z,12.10
2023-05-14T19:14:51.286Z,10.10
2023-05-14T19:17:19.862Z,9.50
2023-05-14T19:19:47.379Z,9.30
2023-05-14T19:22:14.042Z,10.30
2023-05-14T19:24:40.723Z,10.30
2023-05-14T19:27:08.130Z,12.40
2023-05-14T19:29:36.880Z,13.10
2023-05-14T19:32:04.745Z,18.70
2023-05-14T19:34:31.579Z,18.50
2023-05-14T19:36:58.195Z,17.60
2023-05-14T19:39:24.802Z,16.00
2023-05-14T19:43:14.329Z,16.70
2023-05-14T19:45:42.856Z,17.00
2023-05-14T19:48:09.780Z,17.60
2023-05-14T19:50:37.160Z,16.50
2023-05-14T19:53:04.583Z,19.30
2023-05-14T19:55:31.416Z,17.20
2023-05-14T19:57:58.842Z,19.30
2023-05-14T20:00:26.799Z,12.00
2023-05-14T20:02:55.017Z,11.50
2023-05-14T20:05:22.170Z,10.50
2023-05-14T20:07:49.518Z,11.20
2023-05-14T20:10:16.250Z,8.30
2023-05-14T20:12:42.912Z,10.30
2023-05-14T20:15:10.275Z,7.90
2023-05-14T20:17:38.313Z,8.00
2023-05-14T20:20:06.917Z,7.80
2023-05-14T20:22:33.572Z,8.30
2023-05-14T20:25:00.413Z,7.40
2023-05-14T20:27:27.226Z,7.10
2023-05-14T20:29:54.356Z,7.10
2023-05-14T20:32:25.037Z,7.80
2023-05-14T20:34:52.009Z,7.70
2023-05-14T20:37:19.855Z,7.50
2023-05-14T20:39:46.894Z,7.90
2023-05-14T20:42:13.675Z,7.00
2023-05-14T20:44:40.468Z,7.80
2023-05-14T20:47:07.166Z,6.70
2023-05-14T20:49:33.816Z,7.80
2023-05-14T20:52:00.614Z,7.70
2023-05-14T20:54:27.263Z,6.80
2023-05-14T20:56:53.878Z,6.90
2023-05-14T20:59:20.479Z,6.30
2023-05-14T21:01:47.410Z,6.80
2023-05-14T21:04:15.290Z,7.30
2023-05-14T21:06:42.276Z,7.50
2023-05-14T21:09:08.921Z,7.50
2023-05-14T21:11:35.753Z,6.70
2023-05-14T21:14:02.429Z,7.90
2023-05-14T21:16:30.314Z,7.70
2023-05-14T21:18:57.484Z,8.10
2023-05-14T21:21:24.193Z,10.30
2023-05-14T21:23:51.103Z,9.90
2023-05-14T21:26:17.717Z,8.50
2023-05-14T21:28:44.283Z,8.50
2023-05-14T21:31:10.899Z,8.50
2023-05-14T21:33:37.577Z,10.00
2023-05-14T21:36:04.664Z,7.10
2023-05-14T21:38:32.496Z,8.50
2023-05-14T21:40:59.690Z,9.00
2023-05-14T21:43:26.771Z,9.40
2023-05-14T21:45:53.375Z,9.10
2023-05-14T21:48:20.306Z,9.50
2023-05-14T21:50:47.136Z,10.60
2023-05-14T21:53:13.852Z,11.30
2023-05-14T21:55:40.674Z,8.20
2023-05-14T21:58:07.599Z,8.00
2023-05-14T22:00:34.309Z,9.00
2023-05-14T22:03:00.910Z,8.80
2023-05-14T22:05:27.768Z,9.10
2023-05-14T22:07:54.651Z,9.40
2023-05-14T22:10:21.446Z,8.30
2023-05-14T22:12:48.187Z,9.80
2023-05-14T22:15:14.821Z,7.60
2023-05-14T22:17:42.036Z,9.10
2023-05-14T22:20:11.659Z,7.70
2023-05-14T22:22:38.550Z,8.20
2023-05-14T22:25:05.704Z,7.30
2023-05-14T22:27:32.410Z,10.30
2023-05-14T22:29:59.251Z,10.00
2023-05-14T22:32:26.031Z,8.70
2023-05-14T22:34:52.766Z,8.80
2023-05-14T22:37:19.452Z,9.70
2023-05-14T22:39:46.073Z,10.00
2023-05-14T22:42:13.278Z,10.70
2023-05-14T22:44:40.090Z,9.00
2023-05-14T22:47:06.811Z,10.10
2023-05-14T22:49:33.391Z,11.00
2023-05-14T22:52:00.060Z,8.30
2023-05-14T22:54:26.654Z,8.20
2023-05-14T22:56:53.390Z,10.20
2023-05-14T22:59:21.013Z,8.70
2023-05-14T23:01:49.541Z,8.20
2023-05-14T23:04:16.262Z,8.20
2023-05-14T23:06:42.970Z,8.70
2023-05-14T23:09:09.565Z,7.40
2023-05-14T23:11:36.180Z,9.20
2023-05-14T23:14:03.070Z,8.30
2023-05-14T23:16:29.670Z,8.60
2023-05-14T23:18:56.419Z,9.20
2023-05-14T23:21:23.807Z,8.30
2023-05-14T23:23:50.489Z,8.40
2023-05-14T23:26:17.112Z,10.10
2023-05-14T23:28:44.103Z,10.10
2023-05-14T23:31:10.872Z,11.20
2023-05-14T23:33:39.895Z,9.20
2023-05-14T23:36:07.288Z,9.00
2023-05-14T23:38:33.961Z,11.00
2023-05-14T23:41:00.606Z,10.30
2023-05-14T23:43:27.276Z,10.90
2023-05-14T23:45:53.899Z,11.60
2023-05-14T23:48:20.683Z,11.30
2023-05-14T23:50:47.786Z,11.50
2023-05-14T23:53:14.348Z,11.70
2023-05-14T23:55:41.117Z,10.30
2023-05-14T23:58:07.847Z,10.80
